createdAt,value
2018-10-11T00:02:38.141Z,12.09
2018-10-11T00:07:33.024Z,12.00
2018-10-11T00:12:27.936Z,11.90
2018-10-11T00:17:22.753Z,11.92
2018-10-11T00:22:17.593Z,11.74
2018-10-11T00:27:12.714Z,11.74
2018-10-11T00:32:07.626Z,11.71
2018-10-11T00:37:02.459Z,11.76
2018-10-11T00:41:57.260Z,11.76
2018-10-11T00:46:52.101Z,11.63
2018-10-11T00:51:46.906Z,11.63
2018-10-11T00:56:41.893Z,11.54
2018-10-11T01:01:36.708Z,11.55
2018-10-11T01:06:31.565Z,11.59
2018-10-11T01:11:26.462Z,11.51
2018-10-11T01:16:21.263Z,11.30
2018-10-11T01:21:16.073Z,11.29
2018-10-11T01:26:11.438Z,11.24
2018-10-11T01:31:11.218Z,11.41
2018-10-11T01:36:06.170Z,11.37
2018-10-11T01:41:01.045Z,11.22
2018-10-11T01:45:55.911Z,11.16
2018-10-11T01:50:50.753Z,11.28
2018-10-11T01:55:45.567Z,11.33
2018-10-11T02:00:40.662Z,11.21
2018-10-11T02:05:35.468Z,11.19
2018-10-11T02:10:30.302Z,10.99
2018-10-11T02:15:25.638Z,10.98
2018-10-11T02:20:20.887Z,10.92
2018-10-11T02:25:15.789Z,10.83
2018-10-11T02:30:11.377Z,10.83
2018-10-11T02:35:06.380Z,10.83
2018-10-11T02:40:02.148Z,10.81
2018-10-11T02:44:57.089Z,10.78
2018-10-11T02:49:52.925Z,10.59
2018-10-11T02:54:47.824Z,10.71
2018-10-11T02:59:42.873Z,10.59
2018-10-11T03:04:38.267Z,10.52
2018-10-11T03:09:33.261Z,10.75
2018-10-11T03:14:28.430Z,10.66
2018-10-11T03:19:23.377Z,10.51
2018-10-11T03:24:18.351Z,10.51
2018-10-11T03:29:13.239Z,10.44
2018-10-11T03:34:08.066Z,10.43
2018-10-11T03:39:03.031Z,10.52
2018-10-11T03:43:57.932Z,10.43
2018-10-11T03:48:52.865Z,10.35
2018-10-11T03:53:47.779Z,10.53
2018-10-11T03:58:42.803Z,10.32
2018-10-11T04:03:37.748Z,10.53
2018-10-11T04:08:32.866Z,10.37
2018-10-11T04:13:27.796Z,10.37
2018-10-11T04:18:22.731Z,10.31
2018-10-11T04:23:22.685Z,10.31
2018-10-11T04:28:17.649Z,10.23
2018-10-11T04:33:13.006Z,10.05
2018-10-11T04:38:08.013Z,10.06
2018-10-11T04:43:03.038Z,10.04
2018-10-11T04:47:57.881Z,10.27
2018-10-11T04:52:52.800Z,10.03
2018-10-11T04:57:48.476Z,10.12
2018-10-11T05:02:43.386Z,10.06
2018-10-11T05:07:38.289Z,10.12
2018-10-11T05:12:33.323Z,10.15
2018-10-11T05:17:28.409Z,9.95
2018-10-11T05:22:23.413Z,10.10
2018-10-11T05:27:19.386Z,10.07
2018-10-11T05:32:14.729Z,10.01
2018-10-11T05:37:09.687Z,9.95
2018-10-11T05:42:04.869Z,9.94
2018-10-11T05:46:59.937Z,10.06
2018-10-11T05:51:55.621Z,9.96
2018-10-11T05:56:51.147Z,9.94
2018-10-11T06:01:46.151Z,10.02
2018-10-11T06:06:41.245Z,10.10
2018-10-11T06:11:36.341Z,10.18
2018-10-11T06:16:31.315Z,10.10
2018-10-11T06:21:27.451Z,10.16
2018-10-11T06:26:22.499Z,10.22
2018-10-11T06:31:17.572Z,10.32
2018-10-11T06:36:12.728Z,10.33
2018-10-11T06:41:07.764Z,10.43
2018-10-11T06:46:02.785Z,10.48
2018-10-11T06:50:57.787Z,10.77
2018-10-11T06:55:52.664Z,11.01
2018-10-11T07:00:47.685Z,11.21
2018-10-11T07:05:42.594Z,11.30
2018-10-11T07:10:37.452Z,11.51
2018-10-11T07:15:33.082Z,11.61
2018-10-11T07:20:28.013Z,11.97
2018-10-11T07:25:22.866Z,12.29
2018-10-11T07:30:17.781Z,12.71
2018-10-11T07:35:12.755Z,13.06
2018-10-11T07:40:08.137Z,13.70
2018-10-11T07:45:02.994Z,13.88
2018-10-11T07:49:57.868Z,14.30
2018-10-11T07:54:52.821Z,14.72
2018-10-11T07:59:47.626Z,14.88
2018-10-11T08:04:42.453Z,15.10
2018-10-11T08:09:37.266Z,15.00
2018-10-11T08:14:32.013Z,15.08
2018-10-11T08:19:28.001Z,15.08
2018-10-11T08:24:22.492Z,15.20
2018-10-11T08:29:17.257Z,15.39
2018-10-11T08:34:12.942Z,15.73
2018-10-11T08:39:11.538Z,16.10
2018-10-11T08:44:06.515Z,16.19
2018-10-11T08:49:02.143Z,16.38
2018-10-11T08:54:01.054Z,16.44
2018-10-11T08:58:55.848Z,16.50
2018-10-11T09:03:50.840Z,16.71
2018-10-11T09:08:45.521Z,17.00
2018-10-11T09:13:40.362Z,17.32
2018-10-11T09:18:35.319Z,17.55
2018-10-11T09:23:30.150Z,17.47
2018-10-11T09:28:26.338Z,17.76
2018-10-11T09:33:21.257Z,17.82
2018-10-11T09:38:17.762Z,17.89
2018-10-11T09:43:12.649Z,17.86
2018-10-11T09:48:07.443Z,17.93
2018-10-11T09:53:02.275Z,18.01
2018-10-11T09:57:57.094Z,18.12
2018-10-11T10:02:52.462Z,18.28
2018-10-11T10:07:47.303Z,18.37
2018-10-11T10:12:42.117Z,18.64
2018-10-11T10:17:37.414Z,18.78
2018-10-11T10:22:32.513Z,18.65
2018-10-11T10:27:27.387Z,18.40
2018-10-11T10:32:22.195Z,18.45
2018-10-11T10:37:17.065Z,18.33
2018-10-11T10:42:11.900Z,18.38
2018-10-11T10:47:06.786Z,18.35
2018-10-11T10:52:01.633Z,18.55
2018-10-11T10:56:57.005Z,18.64
2018-10-11T11:01:51.805Z,18.80
2018-10-11T11:06:46.646Z,18.73
2018-10-11T11:11:41.818Z,18.86
2018-10-11T11:16:36.622Z,18.95
2018-10-11T11:21:31.474Z,19.09
2018-10-11T11:26:26.299Z,19.04
2018-10-11T11:31:21.315Z,18.90
2018-10-11T11:36:16.217Z,18.82
2018-10-11T11:41:11.064Z,18.72
2018-10-11T11:46:05.909Z,18.82
2018-10-11T11:51:00.827Z,18.79
2018-10-11T11:55:55.710Z,18.96
2018-10-11T12:00:50.586Z,19.05
2018-10-11T12:05:45.409Z,19.11
2018-10-11T12:10:40.261Z,19.29
2018-10-11T12:15:35.677Z,19.29
2018-10-11T12:20:33.583Z,19.23
2018-10-11T12:25:28.891Z,19.17
2018-10-11T12:30:25.015Z,19.21
2018-10-11T12:35:21.009Z,19.08
2018-10-11T12:40:17.115Z,19.05
2018-10-11T12:45:12.949Z,19.15
2018-10-11T12:50:09.189Z,19.16
2018-10-11T12:55:04.100Z,19.08
2018-10-11T12:59:58.952Z,19.11
2018-10-11T13:04:53.796Z,19.10
2018-10-11T13:09:48.661Z,19.09
2018-10-11T13:19:30.318Z,19.08
2018-10-11T13:24:26.216Z,19.11
2018-10-11T13:29:21.070Z,19.07
2018-10-11T13:34:15.936Z,18.95
2018-10-11T13:39:11.743Z,18.95
2018-10-11T13:44:06.581Z,18.82
2018-10-11T13:49:01.631Z,18.63
2018-10-11T13:53:58.398Z,18.47
2018-10-11T13:58:51.755Z,18.29
2018-10-11T14:03:49.100Z,18.13
2018-10-11T14:08:44.953Z,17.93
2018-10-11T14:13:40.890Z,17.78
2018-10-11T14:18:42.509Z,17.75
2018-10-11T14:23:37.958Z,17.69
2018-10-11T14:28:33.857Z,17.65
2018-10-11T14:33:30.947Z,17.59
2018-10-11T14:38:26.926Z,17.52
2018-10-11T14:43:21.814Z,17.51
2018-10-11T14:48:16.633Z,17.63
2018-10-11T14:53:11.486Z,17.63
2018-10-11T14:58:06.601Z,17.63
2018-10-11T15:03:02.189Z,17.68
2018-10-11T15:07:57.155Z,17.78
2018-10-11T15:12:51.935Z,17.76
2018-10-11T15:17:46.834Z,17.76
2018-10-11T15:22:41.655Z,17.77
2018-10-11T15:27:36.518Z,17.80
2018-10-11T15:32:32.521Z,17.85
2018-10-11T15:37:27.401Z,17.92
2018-10-11T15:42:22.285Z,18.00
2018-10-11T15:47:17.202Z,17.90
2018-10-11T15:52:12.107Z,17.85
2018-10-11T15:57:07.001Z,17.80
2018-10-11T16:02:02.725Z,17.72
2018-10-11T16:06:57.623Z,17.66
2018-10-11T16:11:52.558Z,17.59
2018-10-11T16:16:47.377Z,17.59
2018-10-11T16:21:42.273Z,17.61
2018-10-11T16:26:37.128Z,17.55
2018-10-11T16:31:32.055Z,17.45
2018-10-11T16:36:26.937Z,17.39
2018-10-11T16:41:21.780Z,17.29
2018-10-11T16:46:16.983Z,17.22
2018-10-11T16:51:11.819Z,17.14
2018-10-11T16:56:06.746Z,17.02
2018-10-11T17:01:01.611Z,16.90
2018-10-11T17:05:56.443Z,16.73
2018-10-11T17:10:51.327Z,16.70
2018-10-11T17:15:46.313Z,16.61
2018-10-11T17:20:41.142Z,16.52
2018-10-11T17:25:36.070Z,16.44
2018-10-11T17:30:30.915Z,16.41
2018-10-11T17:35:25.943Z,16.40
2018-10-11T17:40:20.898Z,16.38
2018-10-11T17:45:15.695Z,16.26
2018-10-11T17:50:10.653Z,16.17
2018-10-11T17:55:05.655Z,16.08
2018-10-11T18:00:00.515Z,15.97
2018-10-11T18:04:55.404Z,15.83
2018-10-11T18:09:50.556Z,15.71
2018-10-11T18:14:45.430Z,15.54
2018-10-11T18:19:40.308Z,15.50
2018-10-11T18:24:35.184Z,15.44
2018-10-11T18:29:30.068Z,15.22
2018-10-11T18:34:24.892Z,15.12
2018-10-11T18:39:20.805Z,15.17
2018-10-11T18:44:15.854Z,15.12
2018-10-11T18:49:11.089Z,15.04
2018-10-11T18:54:05.975Z,15.03
2018-10-11T18:59:00.815Z,14.87
2018-10-11T19:03:55.689Z,14.86
2018-10-11T19:08:50.580Z,14.72
2018-10-11T19:13:45.466Z,14.53
2018-10-11T19:18:40.957Z,14.40
2018-10-11T19:23:36.205Z,14.46
2018-10-11T19:28:31.072Z,14.34
2018-10-11T19:33:26.121Z,14.15
2018-10-11T19:38:21.099Z,14.14
2018-10-11T19:43:16.068Z,14.19
2018-10-11T19:48:11.086Z,14.17
2018-10-11T19:53:06.090Z,14.22
2018-10-11T19:58:01.757Z,14.04
2018-10-11T20:02:56.713Z,14.03
2018-10-11T20:07:51.914Z,13.98
2018-10-11T20:12:47.641Z,13.71
2018-10-11T20:17:42.938Z,13.85
2018-10-11T20:22:38.229Z,13.63
2018-10-11T20:32:42.864Z,13.38
2018-10-11T20:37:38.770Z,13.56
2018-10-11T20:42:34.008Z,13.53
2018-10-11T20:47:28.965Z,13.35
2018-10-11T20:52:23.816Z,13.42
2018-10-11T20:57:18.741Z,13.38
2018-10-11T21:02:14.313Z,13.35
2018-10-11T21:07:09.273Z,13.28
2018-10-11T21:12:04.765Z,13.26
2018-10-11T21:16:59.794Z,13.18
2018-10-11T21:21:54.633Z,13.16
2018-10-11T21:26:49.594Z,13.11
2018-10-11T21:31:44.442Z,13.00
2018-10-11T21:36:39.326Z,12.92
2018-10-11T21:41:34.441Z,12.99
2018-10-11T21:46:29.358Z,13.01
2018-10-11T21:51:24.158Z,12.90
2018-10-11T21:56:18.954Z,12.87
2018-10-11T22:01:18.951Z,12.71
2018-10-11T22:06:14.688Z,12.56
2018-10-11T22:11:10.134Z,12.41
2018-10-11T22:16:05.082Z,12.61
2018-10-11T22:21:00.011Z,12.73
2018-10-11T22:25:55.426Z,12.75
2018-10-11T22:30:50.302Z,12.59
2018-10-11T22:35:45.342Z,12.60
2018-10-11T22:40:40.385Z,12.62
2018-10-11T22:45:35.250Z,12.59
2018-10-11T22:50:30.131Z,12.35
2018-10-11T22:55:25.834Z,12.36
2018-10-11T23:00:21.978Z,12.32
2018-10-11T23:05:16.836Z,12.28
2018-10-11T23:10:11.791Z,12.20
2018-10-11T23:15:06.800Z,12.38
2018-10-11T23:20:01.684Z,12.21
2018-10-11T23:24:56.710Z,12.15
2018-10-11T23:29:51.558Z,12.33
2018-10-11T23:34:47.175Z,12.17
2018-10-11T23:39:42.206Z,12.14
2018-10-11T23:44:37.229Z,12.03
2018-10-11T23:49:32.313Z,12.06
2018-10-11T23:54:27.122Z,12.06
2018-10-11T23:59:22.498Z,12.03
